sensor_id;sensor_type;location;lat;lon;timestamp;P1;durP1;ratioP1;P2;durP2;ratioP2
16177;SDS011;8195;51.220;9.746;2023-04-04T00:01:21;2.43;;;2.20;;
16177;SDS011;8195;51.220;9.746;2023-04-04T00:11:42;2.37;;;2.17;;
16177;SDS011;8195;51.220;9.746;2023-04-04T00:22:03;1.97;;;1.87;;
16177;SDS011;8195;51.220;9.746;2023-04-04T00:32:24;2.00;;;1.80;;
16177;SDS011;8195;51.220;9.746;2023-04-04T00:42:45;2.40;;;2.20;;
16177;SDS011;8195;51.220;9.746;2023-04-04T00:53:06;3.27;;;2.97;;
16177;SDS011;8195;51.220;9.746;2023-04-04T01:03:27;2.43;;;2.17;;
16177;SDS011;8195;51.220;9.746;2023-04-04T01:13:48;2.33;;;2.20;;
16177;SDS011;8195;51.220;9.746;2023-04-04T01:24:09;2.37;;;2.17;;
16177;SDS011;8195;51.220;9.746;2023-04-04T01:45:21;3.67;;;2.70;;
16177;SDS011;8195;51.220;9.746;2023-04-04T01:55:42;2.70;;;2.30;;
16177;SDS011;8195;51.220;9.746;2023-04-04T02:06:03;2.83;;;2.07;;
16177;SDS011;8195;51.220;9.746;2023-04-04T02:16:24;3.70;;;2.30;;
16177;SDS011;8195;51.220;9.746;2023-04-04T02:26:44;3.10;;;2.40;;
16177;SDS011;8195;51.220;9.746;2023-04-04T02:37:05;2.67;;;2.30;;
16177;SDS011;8195;51.220;9.746;2023-04-04T02:47:26;2.50;;;2.30;;
16177;SDS011;8195;51.220;9.746;2023-04-04T02:57:50;3.83;;;2.27;;
16177;SDS011;8195;51.220;9.746;2023-04-04T03:08:11;2.57;;;2.33;;
16177;SDS011;8195;51.220;9.746;2023-04-04T03:18:32;2.10;;;2.00;;
16177;SDS011;8195;51.220;9.746;2023-04-04T03:28:55;3.43;;;2.27;;
16177;SDS011;8195;51.220;9.746;2023-04-04T03:39:16;2.50;;;2.30;;
16177;SDS011;8195;51.220;9.746;2023-04-04T03:49:37;2.40;;;2.20;;
16177;SDS011;8195;51.220;9.746;2023-04-04T03:59:58;2.57;;;2.30;;
16177;SDS011;8195;51.220;9.746;2023-04-04T04:10:19;2.70;;;2.50;;
16177;SDS011;8195;51.220;9.746;2023-04-04T04:20:40;2.47;;;2.27;;
16177;SDS011;8195;51.220;9.746;2023-04-04T04:41:44;2.60;;;2.30;;
16177;SDS011;8195;51.220;9.746;2023-04-04T04:52:05;3.33;;;2.83;;
16177;SDS011;8195;51.220;9.746;2023-04-04T05:13:25;3.93;;;2.67;;
16177;SDS011;8195;51.220;9.746;2023-04-04T05:23:45;3.97;;;2.23;;
16177;SDS011;8195;51.220;9.746;2023-04-04T05:34:06;3.97;;;2.90;;
16177;SDS011;8195;51.220;9.746;2023-04-04T05:44:27;3.93;;;2.90;;
16177;SDS011;8195;51.220;9.746;2023-04-04T05:54:48;3.13;;;2.83;;
16177;SDS011;8195;51.220;9.746;2023-04-04T06:05:09;3.53;;;3.23;;
16177;SDS011;8195;51.220;9.746;2023-04-04T06:15:30;4.07;;;3.33;;
16177;SDS011;8195;51.220;9.746;2023-04-04T06:25:52;3.20;;;2.90;;
16177;SDS011;8195;51.220;9.746;2023-04-04T06:36:13;3.00;;;2.70;;
16177;SDS011;8195;51.220;9.746;2023-04-04T06:46:38;3.10;;;2.60;;
16177;SDS011;8195;51.220;9.746;2023-04-04T06:57:02;2.97;;;2.70;;
16177;SDS011;8195;51.220;9.746;2023-04-04T07:07:34;3.10;;;2.27;;
16177;SDS011;8195;51.220;9.746;2023-04-04T07:18:06;2.97;;;2.73;;
16177;SDS011;8195;51.220;9.746;2023-04-04T07:28:50;2.67;;;2.47;;
16177;SDS011;8195;51.220;9.746;2023-04-04T07:39:10;3.20;;;2.90;;
16177;SDS011;8195;51.220;9.746;2023-04-04T07:49:31;3.57;;;2.90;;
16177;SDS011;8195;51.220;9.746;2023-04-04T07:59:52;3.60;;;3.07;;
16177;SDS011;8195;51.220;9.746;2023-04-04T08:10:13;4.40;;;3.07;;
16177;SDS011;8195;51.220;9.746;2023-04-04T08:20:34;2.93;;;2.73;;
16177;SDS011;8195;51.220;9.746;2023-04-04T08:30:55;3.47;;;3.17;;
16177;SDS011;8195;51.220;9.746;2023-04-04T08:41:16;3.37;;;3.17;;
16177;SDS011;8195;51.220;9.746;2023-04-04T08:51:37;3.20;;;2.90;;
16177;SDS011;8195;51.220;9.746;2023-04-04T09:02:03;4.13;;;3.40;;
16177;SDS011;8195;51.220;9.746;2023-04-04T09:12:34;3.27;;;3.00;;
16177;SDS011;8195;51.220;9.746;2023-04-04T09:22:58;3.40;;;3.10;;
16177;SDS011;8195;51.220;9.746;2023-04-04T09:33:20;3.40;;;3.10;;
16177;SDS011;8195;51.220;9.746;2023-04-04T09:43:45;3.80;;;3.43;;
16177;SDS011;8195;51.220;9.746;2023-04-04T09:54:08;5.13;;;3.60;;
16177;SDS011;8195;51.220;9.746;2023-04-04T10:04:33;3.50;;;3.20;;
16177;SDS011;8195;51.220;9.746;2023-04-04T10:14:57;5.50;;;3.90;;
16177;SDS011;8195;51.220;9.746;2023-04-04T10:25:19;3.60;;;3.30;;
16177;SDS011;8195;51.220;9.746;2023-04-04T10:35:42;4.00;;;3.70;;
16177;SDS011;8195;51.220;9.746;2023-04-04T10:46:07;4.10;;;3.80;;
16177;SDS011;8195;51.220;9.746;2023-04-04T10:56:33;3.10;;;2.90;;
16177;SDS011;8195;51.220;9.746;2023-04-04T11:18:11;3.57;;;3.27;;
16177;SDS011;8195;51.220;9.746;2023-04-04T11:28:42;3.87;;;3.47;;
16177;SDS011;8195;51.220;9.746;2023-04-04T11:39:24;3.80;;;3.50;;
16177;SDS011;8195;51.220;9.746;2023-04-04T11:49:52;4.50;;;4.10;;
16177;SDS011;8195;51.220;9.746;2023-04-04T12:00:34;4.30;;;4.00;;
16177;SDS011;8195;51.220;9.746;2023-04-04T12:11:05;4.20;;;3.90;;
16177;SDS011;8195;51.220;9.746;2023-04-04T12:21:45;4.20;;;3.90;;
16177;SDS011;8195;51.220;9.746;2023-04-04T12:32:18;5.10;;;4.60;;
16177;SDS011;8195;51.220;9.746;2023-04-04T12:42:59;4.30;;;3.90;;
16177;SDS011;8195;51.220;9.746;2023-04-04T12:53:22;4.63;;;4.23;;
16177;SDS011;8195;51.220;9.746;2023-04-04T13:03:49;4.93;;;4.50;;
16177;SDS011;8195;51.220;9.746;2023-04-04T13:14:21;4.57;;;4.17;;
16177;SDS011;8195;51.220;9.746;2023-04-04T13:25:06;5.13;;;4.73;;
16177;SDS011;8195;51.220;9.746;2023-04-04T13:36:06;4.83;;;4.43;;
16177;SDS011;8195;51.220;9.746;2023-04-04T13:57:44;4.33;;;3.90;;
16177;SDS011;8195;51.220;9.746;2023-04-04T14:08:28;4.00;;;3.70;;
16177;SDS011;8195;51.220;9.746;2023-04-04T14:18:49;4.83;;;4.43;;
16177;SDS011;8195;51.220;9.746;2023-04-04T14:29:19;4.37;;;3.80;;
16177;SDS011;8195;51.220;9.746;2023-04-04T14:39:46;4.47;;;4.17;;
16177;SDS011;8195;51.220;9.746;2023-04-04T14:50:18;4.33;;;3.97;;
16177;SDS011;8195;51.220;9.746;2023-04-04T15:00:45;4.23;;;3.93;;
16177;SDS011;8195;51.220;9.746;2023-04-04T15:11:09;3.90;;;3.60;;
16177;SDS011;8195;51.220;9.746;2023-04-04T15:21:40;4.17;;;3.77;;
16177;SDS011;8195;51.220;9.746;2023-04-04T15:32:04;4.37;;;3.97;;
16177;SDS011;8195;51.220;9.746;2023-04-04T15:42:31;4.10;;;3.30;;
16177;SDS011;8195;51.220;9.746;2023-04-04T15:52:55;4.00;;;3.70;;
16177;SDS011;8195;51.220;9.746;2023-04-04T16:03:19;4.50;;;3.63;;
16177;SDS011;8195;51.220;9.746;2023-04-04T16:13:41;4.20;;;3.80;;
16177;SDS011;8195;51.220;9.746;2023-04-04T16:24:01;3.90;;;3.60;;
16177;SDS011;8195;51.220;9.746;2023-04-04T16:34:25;3.77;;;3.47;;
16177;SDS011;8195;51.220;9.746;2023-04-04T16:44:49;4.73;;;3.90;;
16177;SDS011;8195;51.220;9.746;2023-04-04T16:55:13;5.17;;;3.70;;
16177;SDS011;8195;51.220;9.746;2023-04-04T17:05:34;5.47;;;3.97;;
16177;SDS011;8195;51.220;9.746;2023-04-04T17:15:55;4.73;;;3.93;;
16177;SDS011;8195;51.220;9.746;2023-04-04T17:26:16;3.83;;;3.53;;
16177;SDS011;8195;51.220;9.746;2023-04-04T17:36:37;4.43;;;4.03;;
16177;SDS011;8195;51.220;9.746;2023-04-04T17:46:58;3.87;;;3.30;;
16177;SDS011;8195;51.220;9.746;2023-04-04T17:57:19;5.03;;;4.60;;
16177;SDS011;8195;51.220;9.746;2023-04-04T18:07:40;4.57;;;4.10;;
16177;SDS011;8195;51.220;9.746;2023-04-04T18:18:01;4.60;;;3.83;;
16177;SDS011;8195;51.220;9.746;2023-04-04T18:28:22;5.40;;;3.90;;
16177;SDS011;8195;51.220;9.746;2023-04-04T18:38:43;4.70;;;4.30;;
16177;SDS011;8195;51.220;9.746;2023-04-04T18:49:04;5.03;;;4.13;;
16177;SDS011;8195;51.220;9.746;2023-04-04T18:59:28;4.30;;;3.90;;
16177;SDS011;8195;51.220;9.746;2023-04-04T19:09:49;4.33;;;4.03;;
16177;SDS011;8195;51.220;9.746;2023-04-04T19:20:11;6.43;;;3.93;;
16177;SDS011;8195;51.220;9.746;2023-04-04T19:30:42;4.10;;;3.70;;
16177;SDS011;8195;51.220;9.746;2023-04-04T19:41:20;3.87;;;3.57;;
16177;SDS011;8195;51.220;9.746;2023-04-04T19:51:58;4.27;;;3.47;;
16177;SDS011;8195;51.220;9.746;2023-04-04T20:12:50;4.77;;;4.20;;
16177;SDS011;8195;51.220;9.746;2023-04-04T20:23:14;3.90;;;3.50;;
16177;SDS011;8195;51.220;9.746;2023-04-04T20:33:36;4.40;;;3.77;;
16177;SDS011;8195;51.220;9.746;2023-04-04T20:43:58;4.47;;;4.10;;
16177;SDS011;8195;51.220;9.746;2023-04-04T20:54:19;3.87;;;3.57;;
16177;SDS011;8195;51.220;9.746;2023-04-04T21:04:41;4.80;;;3.30;;
16177;SDS011;8195;51.220;9.746;2023-04-04T21:15:03;5.37;;;3.80;;
16177;SDS011;8195;51.220;9.746;2023-04-04T21:25:39;4.37;;;3.97;;
16177;SDS011;8195;51.220;9.746;2023-04-04T21:36:03;5.17;;;4.13;;
16177;SDS011;8195;51.220;9.746;2023-04-04T21:46:29;5.33;;;3.73;;
16177;SDS011;8195;51.220;9.746;2023-04-04T21:56:51;5.30;;;3.93;;
16177;SDS011;8195;51.220;9.746;2023-04-04T22:07:12;4.73;;;4.33;;
16177;SDS011;8195;51.220;9.746;2023-04-04T22:17:33;4.27;;;3.63;;
16177;SDS011;8195;51.220;9.746;2023-04-04T22:27:54;4.53;;;4.13;;
16177;SDS011;8195;51.220;9.746;2023-04-04T22:38:15;4.97;;;4.43;;
16177;SDS011;8195;51.220;9.746;2023-04-04T22:48:36;6.77;;;4.30;;
16177;SDS011;8195;51.220;9.746;2023-04-04T22:58:57;5.37;;;4.87;;
16177;SDS011;8195;51.220;9.746;2023-04-04T23:09:18;4.90;;;4.20;;
16177;SDS011;8195;51.220;9.746;2023-04-04T23:19:39;5.77;;;4.70;;
16177;SDS011;8195;51.220;9.746;2023-04-04T23:30:00;4.53;;;4.13;;
16177;SDS011;8195;51.220;9.746;2023-04-04T23:40:21;5.53;;;4.53;;
16177;SDS011;8195;51.220;9.746;2023-04-04T23:50:41;5.10;;;4.53;;
